sensor_id;sensor_type;location;lat;lon;timestamp;P1;durP1;ratioP1;P2;durP2;ratioP2
77099;SDS011;66602;48.922;2.414;2024-03-08T00:01:12;23.63;;;16.52;;
77099;SDS011;66602;48.922;2.414;2024-03-08T00:03:37;21.23;;;16.52;;
77099;SDS011;66602;48.922;2.414;2024-03-08T00:06:03;23.73;;;16.25;;
77099;SDS011;66602;48.922;2.414;2024-03-08T00:08:32;27.25;;;16.50;;
77099;SDS011;66602;48.922;2.414;2024-03-08T00:10:57;22.38;;;16.08;;
77099;SDS011;66602;48.922;2.414;2024-03-08T00:13:27;27.10;;;17.80;;
77099;SDS011;66602;48.922;2.414;2024-03-08T00:15:53;24.67;;;17.00;;
77099;SDS011;66602;48.922;2.414;2024-03-08T00:18:19;25.33;;;16.48;;
77099;SDS011;66602;48.922;2.414;2024-03-08T00:20:44;24.30;;;17.48;;
77099;SDS011;66602;48.922;2.414;2024-03-08T00:23:10;26.70;;;17.40;;
77099;SDS011;66602;48.922;2.414;2024-03-08T00:25:36;28.17;;;17.58;;
77099;SDS011;66602;48.922;2.414;2024-03-08T00:28:02;24.90;;;16.98;;
77099;SDS011;66602;48.922;2.414;2024-03-08T00:30:31;27.17;;;16.83;;
77099;SDS011;66602;48.922;2.414;2024-03-08T00:32:58;29.77;;;17.80;;
77099;SDS011;66602;48.922;2.414;2024-03-08T00:35:25;29.17;;;17.30;;
77099;SDS011;66602;48.922;2.414;2024-03-08T00:37:50;29.52;;;18.00;;
77099;SDS011;66602;48.922;2.414;2024-03-08T00:40:16;27.63;;;18.58;;
77099;SDS011;66602;48.922;2.414;2024-03-08T00:42:41;27.60;;;17.95;;
77099;SDS011;66602;48.922;2.414;2024-03-08T00:45:08;28.05;;;18.63;;
77099;SDS011;66602;48.922;2.414;2024-03-08T00:47:35;33.17;;;19.08;;
77099;SDS011;66602;48.922;2.414;2024-03-08T00:50:01;30.20;;;19.25;;
77099;SDS011;66602;48.922;2.414;2024-03-08T00:52:28;30.73;;;18.55;;
77099;SDS011;66602;48.922;2.414;2024-03-08T00:54:54;28.77;;;18.23;;
77099;SDS011;66602;48.922;2.414;2024-03-08T00:57:20;34.47;;;17.90;;
77099;SDS011;66602;48.922;2.414;2024-03-08T00:59:47;30.60;;;17.70;;
77099;SDS011;66602;48.922;2.414;2024-03-08T01:02:13;31.77;;;20.15;;
77099;SDS011;66602;48.922;2.414;2024-03-08T01:04:38;31.13;;;20.35;;
77099;SDS011;66602;48.922;2.414;2024-03-08T01:07:04;30.60;;;18.08;;
77099;SDS011;66602;48.922;2.414;2024-03-08T01:09:29;36.28;;;19.63;;
77099;SDS011;66602;48.922;2.414;2024-03-08T01:11:55;32.80;;;19.42;;
77099;SDS011;66602;48.922;2.414;2024-03-08T01:14:25;33.85;;;19.70;;
77099;SDS011;66602;48.922;2.414;2024-03-08T01:16:52;32.00;;;19.85;;
77099;SDS011;66602;48.922;2.414;2024-03-08T01:19:17;33.17;;;19.83;;
77099;SDS011;66602;48.922;2.414;2024-03-08T01:21:43;39.17;;;19.98;;
77099;SDS011;66602;48.922;2.414;2024-03-08T01:24:08;37.63;;;20.30;;
77099;SDS011;66602;48.922;2.414;2024-03-08T01:26:34;34.05;;;20.33;;
77099;SDS011;66602;48.922;2.414;2024-03-08T01:29:00;34.95;;;20.38;;
77099;SDS011;66602;48.922;2.414;2024-03-08T01:31:28;37.60;;;20.77;;
77099;SDS011;66602;48.922;2.414;2024-03-08T01:33:53;35.30;;;19.65;;
77099;SDS011;66602;48.922;2.414;2024-03-08T01:36:19;33.42;;;19.92;;
77099;SDS011;66602;48.922;2.414;2024-03-08T01:38:45;32.20;;;19.83;;
77099;SDS011;66602;48.922;2.414;2024-03-08T01:41:10;34.58;;;20.15;;
77099;SDS011;66602;48.922;2.414;2024-03-08T01:43:37;35.78;;;20.00;;
77099;SDS011;66602;48.922;2.414;2024-03-08T01:46:05;35.33;;;20.70;;
77099;SDS011;66602;48.922;2.414;2024-03-08T01:48:33;35.53;;;21.23;;
77099;SDS011;66602;48.922;2.414;2024-03-08T01:50:59;41.05;;;22.27;;
77099;SDS011;66602;48.922;2.414;2024-03-08T01:53:25;42.17;;;21.80;;
77099;SDS011;66602;48.922;2.414;2024-03-08T01:55:53;37.42;;;20.35;;
77099;SDS011;66602;48.922;2.414;2024-03-08T01:58:20;40.65;;;20.70;;
77099;SDS011;66602;48.922;2.414;2024-03-08T02:00:48;38.92;;;22.08;;
77099;SDS011;66602;48.922;2.414;2024-03-08T02:03:19;35.13;;;21.02;;
77099;SDS011;66602;48.922;2.414;2024-03-08T02:05:45;39.97;;;21.23;;
77099;SDS011;66602;48.922;2.414;2024-03-08T02:08:10;38.97;;;20.08;;
77099;SDS011;66602;48.922;2.414;2024-03-08T02:10:39;37.08;;;20.20;;
77099;SDS011;66602;48.922;2.414;2024-03-08T02:13:04;41.95;;;21.60;;
77099;SDS011;66602;48.922;2.414;2024-03-08T02:18:24;36.13;;;20.80;;
77099;SDS011;66602;48.922;2.414;2024-03-08T02:23:23;39.90;;;21.45;;
77099;SDS011;66602;48.922;2.414;2024-03-08T02:25:52;41.40;;;21.75;;
77099;SDS011;66602;48.922;2.414;2024-03-08T02:28:18;41.22;;;22.27;;
77099;SDS011;66602;48.922;2.414;2024-03-08T02:30:45;43.75;;;22.33;;
77099;SDS011;66602;48.922;2.414;2024-03-08T02:33:14;43.33;;;21.45;;
77099;SDS011;66602;48.922;2.414;2024-03-08T02:35:47;44.83;;;22.42;;
77099;SDS011;66602;48.922;2.414;2024-03-08T02:38:17;38.67;;;20.88;;
77099;SDS011;66602;48.922;2.414;2024-03-08T02:40:48;37.95;;;20.17;;
77099;SDS011;66602;48.922;2.414;2024-03-08T02:43:15;42.40;;;21.77;;
77099;SDS011;66602;48.922;2.414;2024-03-08T02:45:41;38.67;;;20.70;;
77099;SDS011;66602;48.922;2.414;2024-03-08T02:48:07;37.92;;;20.20;;
77099;SDS011;66602;48.922;2.414;2024-03-08T02:50:33;41.33;;;21.80;;
77099;SDS011;66602;48.922;2.414;2024-03-08T02:53:02;34.38;;;21.58;;
77099;SDS011;66602;48.922;2.414;2024-03-08T02:55:29;44.72;;;21.80;;
77099;SDS011;66602;48.922;2.414;2024-03-08T02:57:54;39.72;;;20.38;;
77099;SDS011;66602;48.922;2.414;2024-03-08T03:00:20;40.85;;;21.50;;
77099;SDS011;66602;48.922;2.414;2024-03-08T03:02:51;37.00;;;21.40;;
77099;SDS011;66602;48.922;2.414;2024-03-08T03:05:21;43.60;;;21.02;;
77099;SDS011;66602;48.922;2.414;2024-03-08T03:07:48;45.80;;;23.13;;
77099;SDS011;66602;48.922;2.414;2024-03-08T03:10:13;40.50;;;19.77;;
77099;SDS011;66602;48.922;2.414;2024-03-08T03:12:44;49.10;;;21.67;;
77099;SDS011;66602;48.922;2.414;2024-03-08T03:15:11;48.63;;;22.20;;
77099;SDS011;66602;48.922;2.414;2024-03-08T03:17:37;42.03;;;20.95;;
77099;SDS011;66602;48.922;2.414;2024-03-08T03:20:04;45.67;;;22.23;;
77099;SDS011;66602;48.922;2.414;2024-03-08T03:22:35;42.75;;;22.33;;
77099;SDS011;66602;48.922;2.414;2024-03-08T03:25:02;40.90;;;20.92;;
77099;SDS011;66602;48.922;2.414;2024-03-08T03:27:29;39.90;;;21.65;;
77099;SDS011;66602;48.922;2.414;2024-03-08T03:29:55;44.30;;;22.17;;
77099;SDS011;66602;48.922;2.414;2024-03-08T03:32:22;44.95;;;20.23;;
77099;SDS011;66602;48.922;2.414;2024-03-08T03:34:48;39.15;;;21.55;;
77099;SDS011;66602;48.922;2.414;2024-03-08T03:37:18;44.08;;;20.33;;
77099;SDS011;66602;48.922;2.414;2024-03-08T03:39:45;41.65;;;21.35;;
77099;SDS011;66602;48.922;2.414;2024-03-08T03:42:17;46.13;;;22.75;;
77099;SDS011;66602;48.922;2.414;2024-03-08T03:44:46;46.50;;;22.52;;
77099;SDS011;66602;48.922;2.414;2024-03-08T03:47:12;39.75;;;19.98;;
77099;SDS011;66602;48.922;2.414;2024-03-08T03:49:39;38.13;;;20.48;;
77099;SDS011;66602;48.922;2.414;2024-03-08T03:52:06;43.10;;;21.25;;
77099;SDS011;66602;48.922;2.414;2024-03-08T03:54:31;45.03;;;20.25;;
77099;SDS011;66602;48.922;2.414;2024-03-08T03:56:58;44.83;;;22.38;;
77099;SDS011;66602;48.922;2.414;2024-03-08T03:59:23;40.47;;;20.67;;
77099;SDS011;66602;48.922;2.414;2024-03-08T04:01:49;46.65;;;22.08;;
77099;SDS011;66602;48.922;2.414;2024-03-08T04:04:15;46.50;;;22.27;;
77099;SDS011;66602;48.922;2.414;2024-03-08T04:06:40;42.35;;;22.20;;
77099;SDS011;66602;48.922;2.414;2024-03-08T04:09:07;44.25;;;19.25;;
77099;SDS011;66602;48.922;2.414;2024-03-08T04:11:32;41.33;;;20.20;;
77099;SDS011;66602;48.922;2.414;2024-03-08T04:13:58;41.42;;;19.58;;
77099;SDS011;66602;48.922;2.414;2024-03-08T04:16:24;44.78;;;21.40;;
77099;SDS011;66602;48.922;2.414;2024-03-08T04:18:51;35.85;;;20.20;;
77099;SDS011;66602;48.922;2.414;2024-03-08T04:21:17;38.55;;;19.73;;
77099;SDS011;66602;48.922;2.414;2024-03-08T04:23:44;41.47;;;20.95;;
77099;SDS011;66602;48.922;2.414;2024-03-08T04:26:10;42.95;;;19.92;;
77099;SDS011;66602;48.922;2.414;2024-03-08T04:28:36;39.97;;;20.55;;
77099;SDS011;66602;48.922;2.414;2024-03-08T04:31:02;39.95;;;19.90;;
77099;SDS011;66602;48.922;2.414;2024-03-08T04:33:28;44.53;;;20.02;;
77099;SDS011;66602;48.922;2.414;2024-03-08T04:35:54;41.63;;;20.42;;
77099;SDS011;66602;48.922;2.414;2024-03-08T04:38:19;47.78;;;20.80;;
77099;SDS011;66602;48.922;2.414;2024-03-08T04:40:46;51.83;;;22.85;;
77099;SDS011;66602;48.922;2.414;2024-03-08T04:43:12;42.63;;;20.25;;
77099;SDS011;66602;48.922;2.414;2024-03-08T04:45:39;43.80;;;20.45;;
77099;SDS011;66602;48.922;2.414;2024-03-08T04:48:04;48.95;;;21.70;;
77099;SDS011;66602;48.922;2.414;2024-03-08T04:50:30;51.42;;;22.25;;
77099;SDS011;66602;48.922;2.414;2024-03-08T04:52:56;49.35;;;23.15;;
77099;SDS011;66602;48.922;2.414;2024-03-08T04:55:21;50.78;;;22.95;;
77099;SDS011;66602;48.922;2.414;2024-03-08T04:57:48;47.30;;;21.92;;
77099;SDS011;66602;48.922;2.414;2024-03-08T05:00:14;46.97;;;21.45;;
77099;SDS011;66602;48.922;2.414;2024-03-08T05:02:42;46.92;;;21.42;;
77099;SDS011;66602;48.922;2.414;2024-03-08T05:05:09;45.85;;;21.42;;
77099;SDS011;66602;48.922;2.414;2024-03-08T05:07:39;51.10;;;23.10;;
77099;SDS011;66602;48.922;2.414;2024-03-08T05:10:05;47.80;;;22.67;;
77099;SDS011;66602;48.922;2.414;2024-03-08T05:12:32;53.33;;;23.20;;
77099;SDS011;66602;48.922;2.414;2024-03-08T05:14:58;52.05;;;21.80;;
77099;SDS011;66602;48.922;2.414;2024-03-08T05:17:23;40.22;;;21.58;;
77099;SDS011;66602;48.922;2.414;2024-03-08T05:19:49;47.80;;;21.55;;
77099;SDS011;66602;48.922;2.414;2024-03-08T05:22:15;44.60;;;20.85;;
77099;SDS011;66602;48.922;2.414;2024-03-08T05:24:40;46.90;;;21.80;;
77099;SDS011;66602;48.922;2.414;2024-03-08T05:27:06;46.22;;;22.42;;
77099;SDS011;66602;48.922;2.414;2024-03-08T05:29:31;57.13;;;21.27;;
77099;SDS011;66602;48.922;2.414;2024-03-08T05:31:58;44.10;;;20.42;;
77099;SDS011;66602;48.922;2.414;2024-03-08T05:34:24;47.33;;;20.58;;
77099;SDS011;66602;48.922;2.414;2024-03-08T05:36:51;62.42;;;24.20;;
77099;SDS011;66602;48.922;2.414;2024-03-08T05:39:17;44.58;;;22.27;;
77099;SDS011;66602;48.922;2.414;2024-03-08T05:41:43;44.70;;;21.40;;
77099;SDS011;66602;48.922;2.414;2024-03-08T05:44:09;40.50;;;19.25;;
77099;SDS011;66602;48.922;2.414;2024-03-08T05:46:36;52.10;;;22.60;;
77099;SDS011;66602;48.922;2.414;2024-03-08T05:49:02;36.72;;;18.27;;
77099;SDS011;66602;48.922;2.414;2024-03-08T05:51:31;36.47;;;18.27;;
77099;SDS011;66602;48.922;2.414;2024-03-08T05:54:03;47.78;;;21.38;;
77099;SDS011;66602;48.922;2.414;2024-03-08T05:56:30;47.75;;;20.15;;
77099;SDS011;66602;48.922;2.414;2024-03-08T05:58:56;43.13;;;19.38;;
77099;SDS011;66602;48.922;2.414;2024-03-08T06:01:23;53.38;;;22.13;;
77099;SDS011;66602;48.922;2.414;2024-03-08T06:03:49;45.28;;;21.13;;
77099;SDS011;66602;48.922;2.414;2024-03-08T06:06:15;47.00;;;21.77;;
77099;SDS011;66602;48.922;2.414;2024-03-08T06:08:43;44.45;;;21.42;;
77099;SDS011;66602;48.922;2.414;2024-03-08T06:11:09;45.72;;;22.42;;
77099;SDS011;66602;48.922;2.414;2024-03-08T06:13:35;36.03;;;17.60;;
77099;SDS011;66602;48.922;2.414;2024-03-08T06:16:01;57.40;;;22.65;;
77099;SDS011;66602;48.922;2.414;2024-03-08T06:18:30;51.78;;;21.85;;
77099;SDS011;66602;48.922;2.414;2024-03-08T06:20:56;50.25;;;19.95;;
77099;SDS011;66602;48.922;2.414;2024-03-08T06:23:22;40.40;;;19.02;;
77099;SDS011;66602;48.922;2.414;2024-03-08T06:25:48;47.67;;;21.33;;
77099;SDS011;66602;48.922;2.414;2024-03-08T06:28:16;46.78;;;20.88;;
77099;SDS011;66602;48.922;2.414;2024-03-08T06:30:42;47.20;;;21.38;;
77099;SDS011;66602;48.922;2.414;2024-03-08T06:33:08;45.90;;;21.95;;
77099;SDS011;66602;48.922;2.414;2024-03-08T06:35:33;53.95;;;22.80;;
77099;SDS011;66602;48.922;2.414;2024-03-08T06:38:00;52.58;;;22.15;;
77099;SDS011;66602;48.922;2.414;2024-03-08T06:40:25;52.83;;;21.75;;
77099;SDS011;66602;48.922;2.414;2024-03-08T06:42:51;59.95;;;23.20;;
77099;SDS011;66602;48.922;2.414;2024-03-08T06:45:17;50.20;;;23.15;;
77099;SDS011;66602;48.922;2.414;2024-03-08T06:47:46;62.35;;;23.85;;
77099;SDS011;66602;48.922;2.414;2024-03-08T06:50:13;62.60;;;25.60;;
77099;SDS011;66602;48.922;2.414;2024-03-08T06:52:40;52.88;;;21.77;;
77099;SDS011;66602;48.922;2.414;2024-03-08T06:55:07;64.80;;;25.35;;
77099;SDS011;66602;48.922;2.414;2024-03-08T06:57:40;54.60;;;24.00;;
77099;SDS011;66602;48.922;2.414;2024-03-08T07:00:06;56.58;;;23.90;;
77099;SDS011;66602;48.922;2.414;2024-03-08T07:02:35;49.03;;;22.67;;
77099;SDS011;66602;48.922;2.414;2024-03-08T07:05:01;52.10;;;23.30;;
77099;SDS011;66602;48.922;2.414;2024-03-08T07:07:28;52.92;;;23.90;;
77099;SDS011;66602;48.922;2.414;2024-03-08T07:09:55;54.78;;;22.70;;
77099;SDS011;66602;48.922;2.414;2024-03-08T07:12:21;64.95;;;24.67;;
77099;SDS011;66602;48.922;2.414;2024-03-08T07:14:48;50.38;;;23.67;;
77099;SDS011;66602;48.922;2.414;2024-03-08T07:17:14;54.60;;;23.02;;
77099;SDS011;66602;48.922;2.414;2024-03-08T07:19:41;62.08;;;25.27;;
77099;SDS011;66602;48.922;2.414;2024-03-08T07:22:07;58.65;;;23.15;;
77099;SDS011;66602;48.922;2.414;2024-03-08T07:24:36;63.08;;;23.50;;
77099;SDS011;66602;48.922;2.414;2024-03-08T07:27:02;53.92;;;22.40;;
77099;SDS011;66602;48.922;2.414;2024-03-08T07:29:30;52.35;;;24.35;;
77099;SDS011;66602;48.922;2.414;2024-03-08T07:31:56;58.45;;;22.73;;
77099;SDS011;66602;48.922;2.414;2024-03-08T07:34:28;52.55;;;22.50;;
77099;SDS011;66602;48.922;2.414;2024-03-08T07:36:57;43.17;;;21.50;;
77099;SDS011;66602;48.922;2.414;2024-03-08T07:39:24;36.38;;;19.40;;
77099;SDS011;66602;48.922;2.414;2024-03-08T07:41:49;33.45;;;19.48;;
77099;SDS011;66602;48.922;2.414;2024-03-08T07:44:18;34.40;;;18.98;;
77099;SDS011;66602;48.922;2.414;2024-03-08T07:46:44;34.13;;;19.35;;
77099;SDS011;66602;48.922;2.414;2024-03-08T07:49:09;34.45;;;18.33;;
77099;SDS011;66602;48.922;2.414;2024-03-08T07:51:37;34.25;;;18.42;;
77099;SDS011;66602;48.922;2.414;2024-03-08T07:54:04;29.50;;;18.35;;
77099;SDS011;66602;48.922;2.414;2024-03-08T07:56:30;30.33;;;17.23;;
77099;SDS011;66602;48.922;2.414;2024-03-08T07:58:57;32.00;;;17.65;;
77099;SDS011;66602;48.922;2.414;2024-03-08T08:01:23;27.45;;;17.52;;
77099;SDS011;66602;48.922;2.414;2024-03-08T08:04:03;27.80;;;17.10;;
77099;SDS011;66602;48.922;2.414;2024-03-08T08:06:30;32.85;;;18.40;;
77099;SDS011;66602;48.922;2.414;2024-03-08T08:08:58;28.65;;;17.20;;
77099;SDS011;66602;48.922;2.414;2024-03-08T08:11:27;35.65;;;16.65;;
77099;SDS011;66602;48.922;2.414;2024-03-08T08:13:54;29.60;;;15.85;;
77099;SDS011;66602;48.922;2.414;2024-03-08T08:16:23;26.20;;;15.93;;
77099;SDS011;66602;48.922;2.414;2024-03-08T08:18:48;28.80;;;16.98;;
77099;SDS011;66602;48.922;2.414;2024-03-08T08:21:15;25.75;;;15.73;;
77099;SDS011;66602;48.922;2.414;2024-03-08T08:23:40;22.52;;;16.67;;
77099;SDS011;66602;48.922;2.414;2024-03-08T08:26:06;27.63;;;15.98;;
77099;SDS011;66602;48.922;2.414;2024-03-08T08:28:32;23.15;;;15.77;;
77099;SDS011;66602;48.922;2.414;2024-03-08T08:30:58;26.65;;;15.90;;
77099;SDS011;66602;48.922;2.414;2024-03-08T08:33:24;27.58;;;15.10;;
77099;SDS011;66602;48.922;2.414;2024-03-08T08:35:50;30.45;;;16.83;;
77099;SDS011;66602;48.922;2.414;2024-03-08T08:38:19;20.55;;;14.82;;
77099;SDS011;66602;48.922;2.414;2024-03-08T08:40:45;24.42;;;15.73;;
77099;SDS011;66602;48.922;2.414;2024-03-08T08:43:12;24.73;;;15.52;;
77099;SDS011;66602;48.922;2.414;2024-03-08T08:45:39;23.38;;;14.77;;
77099;SDS011;66602;48.922;2.414;2024-03-08T08:48:05;27.55;;;15.77;;
77099;SDS011;66602;48.922;2.414;2024-03-08T08:50:31;20.60;;;14.50;;
77099;SDS011;66602;48.922;2.414;2024-03-08T08:52:57;21.02;;;14.40;;
77099;SDS011;66602;48.922;2.414;2024-03-08T08:55:23;24.50;;;14.52;;
77099;SDS011;66602;48.922;2.414;2024-03-08T08:57:52;26.55;;;14.63;;
77099;SDS011;66602;48.922;2.414;2024-03-08T09:00:18;17.70;;;13.50;;
77099;SDS011;66602;48.922;2.414;2024-03-08T09:02:45;24.42;;;15.00;;
77099;SDS011;66602;48.922;2.414;2024-03-08T09:05:12;18.42;;;15.02;;
77099;SDS011;66602;48.922;2.414;2024-03-08T09:07:37;18.15;;;13.48;;
77099;SDS011;66602;48.922;2.414;2024-03-08T09:10:03;25.75;;;15.05;;
77099;SDS011;66602;48.922;2.414;2024-03-08T09:12:29;20.33;;;14.52;;
77099;SDS011;66602;48.922;2.414;2024-03-08T09:14:54;18.60;;;14.00;;
77099;SDS011;66602;48.922;2.414;2024-03-08T09:17:20;18.85;;;14.57;;
77099;SDS011;66602;48.922;2.414;2024-03-08T09:19:49;16.33;;;13.38;;
77099;SDS011;66602;48.922;2.414;2024-03-08T09:22:15;18.88;;;13.20;;
77099;SDS011;66602;48.922;2.414;2024-03-08T09:24:41;17.58;;;12.52;;
77099;SDS011;66602;48.922;2.414;2024-03-08T09:27:08;17.80;;;12.93;;
77099;SDS011;66602;48.922;2.414;2024-03-08T09:29:34;17.00;;;13.18;;
77099;SDS011;66602;48.922;2.414;2024-03-08T09:32:00;16.55;;;11.88;;
77099;SDS011;66602;48.922;2.414;2024-03-08T09:34:26;19.42;;;12.63;;
77099;SDS011;66602;48.922;2.414;2024-03-08T09:36:52;15.45;;;12.27;;
77099;SDS011;66602;48.922;2.414;2024-03-08T09:39:18;24.17;;;12.77;;
77099;SDS011;66602;48.922;2.414;2024-03-08T09:41:46;18.63;;;12.90;;
77099;SDS011;66602;48.922;2.414;2024-03-08T09:44:15;14.05;;;12.07;;
77099;SDS011;66602;48.922;2.414;2024-03-08T09:46:41;16.10;;;11.60;;
77099;SDS011;66602;48.922;2.414;2024-03-08T09:49:07;13.20;;;11.57;;
77099;SDS011;66602;48.922;2.414;2024-03-08T09:51:36;12.63;;;11.40;;
77099;SDS011;66602;48.922;2.414;2024-03-08T09:54:05;14.20;;;11.27;;
77099;SDS011;66602;48.922;2.414;2024-03-08T09:56:37;11.98;;;10.75;;
77099;SDS011;66602;48.922;2.414;2024-03-08T09:59:06;11.73;;;10.65;;
77099;SDS011;66602;48.922;2.414;2024-03-08T10:01:51;12.27;;;10.70;;
77099;SDS011;66602;48.922;2.414;2024-03-08T10:04:23;12.82;;;9.80;;
77099;SDS011;66602;48.922;2.414;2024-03-08T10:06:51;11.02;;;10.05;;
77099;SDS011;66602;48.922;2.414;2024-03-08T10:09:17;11.18;;;9.60;;
77099;SDS011;66602;48.922;2.414;2024-03-08T10:11:43;11.80;;;10.63;;
77099;SDS011;66602;48.922;2.414;2024-03-08T10:14:10;12.55;;;9.77;;
77099;SDS011;66602;48.922;2.414;2024-03-08T10:16:38;18.13;;;10.15;;
77099;SDS011;66602;48.922;2.414;2024-03-08T10:19:04;10.02;;;9.13;;
77099;SDS011;66602;48.922;2.414;2024-03-08T10:21:31;10.50;;;9.48;;
77099;SDS011;66602;48.922;2.414;2024-03-08T10:23:58;12.00;;;9.63;;
77099;SDS011;66602;48.922;2.414;2024-03-08T10:26:24;9.75;;;8.93;;
77099;SDS011;66602;48.922;2.414;2024-03-08T10:28:50;11.15;;;10.05;;
77099;SDS011;66602;48.922;2.414;2024-03-08T10:31:22;9.52;;;8.57;;
77099;SDS011;66602;48.922;2.414;2024-03-08T10:33:47;10.63;;;9.52;;
77099;SDS011;66602;48.922;2.414;2024-03-08T10:36:14;11.38;;;8.40;;
77099;SDS011;66602;48.922;2.414;2024-03-08T10:38:41;11.60;;;7.70;;
77099;SDS011;66602;48.922;2.414;2024-03-08T10:41:12;7.30;;;6.78;;
77099;SDS011;66602;48.922;2.414;2024-03-08T10:43:43;8.65;;;6.78;;
77099;SDS011;66602;48.922;2.414;2024-03-08T10:49:25;6.93;;;6.40;;
77099;SDS011;66602;48.922;2.414;2024-03-08T10:52:04;8.65;;;7.63;;
77099;SDS011;66602;48.922;2.414;2024-03-08T10:54:33;6.97;;;6.43;;
77099;SDS011;66602;48.922;2.414;2024-03-08T10:57:03;6.95;;;6.30;;
77099;SDS011;66602;48.922;2.414;2024-03-08T10:59:30;7.43;;;6.72;;
77099;SDS011;66602;48.922;2.414;2024-03-08T11:01:59;6.88;;;6.03;;
77099;SDS011;66602;48.922;2.414;2024-03-08T11:04:25;6.88;;;6.45;;
77099;SDS011;66602;48.922;2.414;2024-03-08T11:06:51;7.13;;;6.20;;
77099;SDS011;66602;48.922;2.414;2024-03-08T11:09:35;6.95;;;6.32;;
77099;SDS011;66602;48.922;2.414;2024-03-08T11:15:13;6.40;;;5.90;;
77099;SDS011;66602;48.922;2.414;2024-03-08T11:20:13;6.70;;;6.10;;
77099;SDS011;66602;48.922;2.414;2024-03-08T11:22:53;7.13;;;4.90;;
77099;SDS011;66602;48.922;2.414;2024-03-08T11:25:33;5.47;;;5.15;;
77099;SDS011;66602;48.922;2.414;2024-03-08T11:28:25;5.75;;;5.25;;
77099;SDS011;66602;48.922;2.414;2024-03-08T11:33:27;6.05;;;5.50;;
77099;SDS011;66602;48.922;2.414;2024-03-08T11:38:41;6.25;;;5.65;;
77099;SDS011;66602;48.922;2.414;2024-03-08T11:41:16;5.93;;;5.43;;
77099;SDS011;66602;48.922;2.414;2024-03-08T11:43:45;5.68;;;5.28;;
77099;SDS011;66602;48.922;2.414;2024-03-08T11:46:12;6.05;;;5.55;;
77099;SDS011;66602;48.922;2.414;2024-03-08T11:48:40;6.30;;;5.85;;
77099;SDS011;66602;48.922;2.414;2024-03-08T11:51:13;5.60;;;5.10;;
77099;SDS011;66602;48.922;2.414;2024-03-08T11:53:40;9.52;;;5.88;;
77099;SDS011;66602;48.922;2.414;2024-03-08T11:58:32;5.55;;;5.15;;
77099;SDS011;66602;48.922;2.414;2024-03-08T12:01:04;12.18;;;5.82;;
77099;SDS011;66602;48.922;2.414;2024-03-08T12:03:40;9.88;;;5.60;;
77099;SDS011;66602;48.922;2.414;2024-03-08T12:06:10;6.78;;;5.50;;
77099;SDS011;66602;48.922;2.414;2024-03-08T12:08:40;5.72;;;5.10;;
77099;SDS011;66602;48.922;2.414;2024-03-08T12:11:05;5.70;;;5.20;;
77099;SDS011;66602;48.922;2.414;2024-03-08T12:13:35;5.68;;;5.20;;
77099;SDS011;66602;48.922;2.414;2024-03-08T12:16:03;6.00;;;5.38;;
77099;SDS011;66602;48.922;2.414;2024-03-08T12:18:32;6.18;;;5.57;;
77099;SDS011;66602;48.922;2.414;2024-03-08T12:23:45;5.30;;;4.90;;
77099;SDS011;66602;48.922;2.414;2024-03-08T12:26:23;7.50;;;5.97;;
77099;SDS011;66602;48.922;2.414;2024-03-08T12:28:51;9.02;;;5.80;;
77099;SDS011;66602;48.922;2.414;2024-03-08T12:31:18;6.30;;;5.80;;
77099;SDS011;66602;48.922;2.414;2024-03-08T12:36:37;7.22;;;5.32;;
77099;SDS011;66602;48.922;2.414;2024-03-08T12:39:02;4.93;;;4.50;;
77099;SDS011;66602;48.922;2.414;2024-03-08T12:41:30;5.35;;;4.55;;
77099;SDS011;66602;48.922;2.414;2024-03-08T12:43:57;5.18;;;4.70;;
77099;SDS011;66602;48.922;2.414;2024-03-08T12:46:23;5.70;;;5.07;;
77099;SDS011;66602;48.922;2.414;2024-03-08T12:48:52;5.63;;;4.88;;
77099;SDS011;66602;48.922;2.414;2024-03-08T12:51:19;5.32;;;4.90;;
77099;SDS011;66602;48.922;2.414;2024-03-08T12:53:46;3.78;;;3.58;;
77099;SDS011;66602;48.922;2.414;2024-03-08T12:56:12;4.45;;;4.13;;
77099;SDS011;66602;48.922;2.414;2024-03-08T12:58:46;9.05;;;3.95;;
77099;SDS011;66602;48.922;2.414;2024-03-08T13:01:11;4.13;;;3.83;;
77099;SDS011;66602;48.922;2.414;2024-03-08T13:03:37;4.32;;;4.03;;
77099;SDS011;66602;48.922;2.414;2024-03-08T13:06:03;4.63;;;4.32;;
77099;SDS011;66602;48.922;2.414;2024-03-08T13:08:33;5.20;;;4.80;;
77099;SDS011;66602;48.922;2.414;2024-03-08T13:11:04;4.88;;;4.47;;
77099;SDS011;66602;48.922;2.414;2024-03-08T13:13:30;4.95;;;4.55;;
77099;SDS011;66602;48.922;2.414;2024-03-08T13:15:57;4.97;;;3.92;;
77099;SDS011;66602;48.922;2.414;2024-03-08T13:18:25;6.70;;;3.95;;
77099;SDS011;66602;48.922;2.414;2024-03-08T13:20:50;4.15;;;3.88;;
77099;SDS011;66602;48.922;2.414;2024-03-08T13:23:17;7.25;;;3.97;;
77099;SDS011;66602;48.922;2.414;2024-03-08T13:25:43;4.63;;;4.20;;
77099;SDS011;66602;48.922;2.414;2024-03-08T13:28:09;4.00;;;3.70;;
77099;SDS011;66602;48.922;2.414;2024-03-08T13:30:36;4.45;;;4.10;;
77099;SDS011;66602;48.922;2.414;2024-03-08T13:33:01;7.22;;;3.83;;
77099;SDS011;66602;48.922;2.414;2024-03-08T13:35:29;4.25;;;3.85;;
77099;SDS011;66602;48.922;2.414;2024-03-08T13:37:55;4.95;;;3.58;;
77099;SDS011;66602;48.922;2.414;2024-03-08T13:40:22;3.65;;;3.42;;
77099;SDS011;66602;48.922;2.414;2024-03-08T13:42:48;4.45;;;4.05;;
77099;SDS011;66602;48.922;2.414;2024-03-08T13:45:14;4.45;;;3.30;;
77099;SDS011;66602;48.922;2.414;2024-03-08T13:47:43;3.67;;;3.38;;
77099;SDS011;66602;48.922;2.414;2024-03-08T13:50:09;3.30;;;3.00;;
77099;SDS011;66602;48.922;2.414;2024-03-08T13:52:39;4.78;;;3.40;;
77099;SDS011;66602;48.922;2.414;2024-03-08T13:55:05;5.30;;;3.10;;
77099;SDS011;66602;48.922;2.414;2024-03-08T13:57:31;3.15;;;2.92;;
77099;SDS011;66602;48.922;2.414;2024-03-08T13:59:59;3.15;;;2.85;;
77099;SDS011;66602;48.922;2.414;2024-03-08T14:02:25;8.73;;;2.95;;
77099;SDS011;66602;48.922;2.414;2024-03-08T14:04:56;4.53;;;2.80;;
77099;SDS011;66602;48.922;2.414;2024-03-08T14:07:22;4.00;;;3.78;;
77099;SDS011;66602;48.922;2.414;2024-03-08T14:09:51;6.30;;;2.90;;
77099;SDS011;66602;48.922;2.414;2024-03-08T14:12:18;3.20;;;2.90;;
77099;SDS011;66602;48.922;2.414;2024-03-08T14:14:44;7.97;;;2.85;;
77099;SDS011;66602;48.922;2.414;2024-03-08T14:17:09;2.47;;;2.28;;
77099;SDS011;66602;48.922;2.414;2024-03-08T14:19:36;2.70;;;2.50;;
77099;SDS011;66602;48.922;2.414;2024-03-08T14:22:04;2.25;;;2.15;;
77099;SDS011;66602;48.922;2.414;2024-03-08T14:24:30;2.53;;;2.30;;
77099;SDS011;66602;48.922;2.414;2024-03-08T14:26:56;3.63;;;2.20;;
77099;SDS011;66602;48.922;2.414;2024-03-08T14:29:24;3.42;;;1.88;;
77099;SDS011;66602;48.922;2.414;2024-03-08T14:31:54;1.85;;;1.75;;
77099;SDS011;66602;48.922;2.414;2024-03-08T14:34:22;4.32;;;2.15;;
77099;SDS011;66602;48.922;2.414;2024-03-08T14:36:52;3.50;;;2.25;;
77099;SDS011;66602;48.922;2.414;2024-03-08T14:39:18;3.33;;;2.13;;
77099;SDS011;66602;48.922;2.414;2024-03-08T14:41:51;3.53;;;3.33;;
77099;SDS011;66602;48.922;2.414;2024-03-08T14:44:23;2.55;;;2.35;;
77099;SDS011;66602;48.922;2.414;2024-03-08T14:46:54;2.92;;;2.28;;
77099;SDS011;66602;48.922;2.414;2024-03-08T14:49:23;2.95;;;2.13;;
77099;SDS011;66602;48.922;2.414;2024-03-08T14:51:51;2.33;;;2.15;;
77099;SDS011;66602;48.922;2.414;2024-03-08T14:54:19;4.10;;;2.50;;
77099;SDS011;66602;48.922;2.414;2024-03-08T14:56:47;4.03;;;2.22;;